Idman, Idaho
Current Conditions -  °F | °C
As of 12:53 AM on Friday 31 Oct 2014 (Local Time) from KRXE Reporting Station
Clear Clear  
Wind Chill: 38°   Ceiling: Unl
Heat Index: 41°   Visibility: 10mi
Dew Point: 31°   Wind: 5mph
Humidity: 67%   Direction: 60°ENE
Pressure: 30.09"   Gusts: NA
Location:  44.2396°N, 112.579°W
Report Text: KRXE 310653Z AUTO 06004KT 10SM CLR 05/M01 A3009 RMK AO2 SLP178 T00501006 401830000
Loading
Personal Weather Stations






























Interactive Weather Map
Tropical Storm Tracking
New forecast layout! Learn more

10-Day Weather Forecast

Advertisements
Track Severe Weather on mobile